createdAt,value
2024-02-09T00:03:05.252Z,112.6
2024-02-09T00:08:36.567Z,118.8
2024-02-09T00:14:08.018Z,128.4
2024-02-09T00:19:39.781Z,102.7
2024-02-09T00:25:12.090Z,114.3
2024-02-09T00:30:43.234Z,159.7
2024-02-09T00:36:18.923Z,145.7
2024-02-09T00:41:50.524Z,132.1
2024-02-09T00:47:22.267Z,199.0
2024-02-09T00:52:53.695Z,158.7
2024-02-09T00:58:26.020Z,152.2
2024-02-09T01:03:57.032Z,135.4
2024-02-09T01:09:28.722Z,323.9
2024-02-09T01:15:00.304Z,228.7
2024-02-09T01:20:32.232Z,131.6
2024-02-09T01:26:03.462Z,118.1
2024-02-09T01:31:35.391Z,164.4
2024-02-09T01:37:11.235Z,186.9
2024-02-09T01:42:42.778Z,146.5
2024-02-09T01:48:14.592Z,228.0
2024-02-09T01:53:46.161Z,246.8
2024-02-09T01:59:17.706Z,204.5
2024-02-09T02:04:50.089Z,198.0
2024-02-09T02:10:21.342Z,180.4
2024-02-09T02:15:52.577Z,263.6
2024-02-09T02:21:24.319Z,168.2
2024-02-09T02:26:55.896Z,159.0
2024-02-09T02:32:27.663Z,151.7
2024-02-09T02:38:05.436Z,152.0
2024-02-09T02:43:37.426Z,159.0
2024-02-09T02:49:08.882Z,142.4
2024-02-09T02:54:40.554Z,143.3
2024-02-09T03:00:12.072Z,108.3
2024-02-09T03:05:44.009Z,87.4
2024-02-09T03:11:15.407Z,94.9
2024-02-09T03:16:47.028Z,87.8
2024-02-09T03:22:18.651Z,81.2
2024-02-09T03:27:50.106Z,53.4
2024-02-09T03:33:21.947Z,136.6
2024-02-09T03:38:59.860Z,69.5
2024-02-09T03:44:31.423Z,68.8
2024-02-09T03:50:03.579Z,42.1
2024-02-09T03:55:34.835Z,64.6
2024-02-09T04:01:06.582Z,59.1
2024-02-09T04:06:38.197Z,39.5
2024-02-09T04:12:09.637Z,62.3
2024-02-09T04:17:41.385Z,59.6
2024-02-09T04:23:12.918Z,37.7
2024-02-09T04:28:44.604Z,57.1
2024-02-09T04:34:16.412Z,59.3
2024-02-09T04:39:52.174Z,57.4
2024-02-09T04:45:23.801Z,37.8
2024-02-09T04:50:55.422Z,26.6
2024-02-09T04:56:27.987Z,49.0
2024-02-09T05:01:58.782Z,74.4
2024-02-09T05:07:30.361Z,41.9
2024-02-09T05:13:02.298Z,28.7
2024-02-09T05:18:33.638Z,37.2
2024-02-09T05:24:05.172Z,36.6
2024-02-09T05:29:37.418Z,26.9
2024-02-09T05:35:08.660Z,56.4
2024-02-09T05:40:46.790Z,26.0
2024-02-09T05:46:18.289Z,22.6
2024-02-09T05:51:49.800Z,28.1
2024-02-09T05:57:21.475Z,177.4
2024-02-09T06:02:53.238Z,124.8
2024-02-09T06:08:24.608Z,74.8
2024-02-09T06:13:56.691Z,34.7
2024-02-09T06:19:28.107Z,209.9
2024-02-09T06:25:00.061Z,273.1
2024-02-09T06:30:31.132Z,40.4
2024-02-09T06:36:02.830Z,33.3
2024-02-09T06:41:38.822Z,144.1
2024-02-09T06:47:11.197Z,46.2
2024-02-09T06:52:42.241Z,48.4
2024-02-09T06:58:13.690Z,40.5
2024-02-09T07:03:45.384Z,39.6
2024-02-09T07:09:32.361Z,36.3
2024-02-09T07:14:48.667Z,84.6
2024-02-09T07:20:20.631Z,46.2
2024-02-09T07:25:52.006Z,29.4
2024-02-09T07:31:23.556Z,38.5
2024-02-09T07:36:55.312Z,37.3
2024-02-09T07:42:31.136Z,111.9
2024-02-09T07:48:02.918Z,122.3
2024-02-09T07:53:34.463Z,51.2
2024-02-09T07:59:06.049Z,130.9
2024-02-09T08:04:37.843Z,137.9
2024-02-09T08:10:09.637Z,49.9
2024-02-09T08:15:40.964Z,249.6
2024-02-09T08:21:12.552Z,33.3
2024-02-09T08:26:54.317Z,27.2
2024-02-09T08:32:15.797Z,23.9
2024-02-09T08:37:47.652Z,31.7
2024-02-09T08:43:25.499Z,34.3
2024-02-09T08:48:57.235Z,54.4
2024-02-09T08:54:28.592Z,29.0
2024-02-09T09:00:00.314Z,24.7
2024-02-09T09:05:31.879Z,62.2
2024-02-09T09:11:03.946Z,45.3
2024-02-09T09:16:35.297Z,27.5
2024-02-09T09:22:06.939Z,137.1
2024-02-09T09:27:38.610Z,31.0
2024-02-09T09:33:10.192Z,25.9
2024-02-09T09:38:41.667Z,36.7
2024-02-09T09:44:19.949Z,21.7
2024-02-09T09:49:58.598Z,21.7
2024-02-09T09:55:30.293Z,30.1
2024-02-09T10:01:01.946Z,30.5
2024-02-09T10:06:33.640Z,28.3
2024-02-09T10:12:05.060Z,23.5
2024-02-09T10:17:36.557Z,21.4
2024-02-09T10:23:08.357Z,39.2
2024-02-09T10:28:40.112Z,24.8
2024-02-09T10:34:11.774Z,21.7
2024-02-09T10:39:44.077Z,29.4
2024-02-09T10:45:23.320Z,28.4
2024-02-09T10:50:50.770Z,21.4
2024-02-09T10:56:22.318Z,58.9
2024-02-09T11:01:54.054Z,35.9
2024-02-09T11:07:25.693Z,30.3
2024-02-09T11:12:57.159Z,27.9
2024-02-09T11:18:28.891Z,40.2
2024-02-09T11:24:01.609Z,32.0
2024-02-09T11:29:32.069Z,20.8
2024-02-09T11:35:03.992Z,25.7
2024-02-09T11:40:36.475Z,24.5
2024-02-09T11:46:11.590Z,23.2
2024-02-09T11:51:43.070Z,18.6
2024-02-09T11:57:15.462Z,30.9
2024-02-09T12:02:46.299Z,26.3
2024-02-09T12:08:18.247Z,29.2
2024-02-09T12:13:49.954Z,39.3
2024-02-09T12:19:21.335Z,27.6
2024-02-09T12:24:53.433Z,49.7
2024-02-09T12:30:24.463Z,32.4
2024-02-09T12:35:56.106Z,41.6
2024-02-09T12:41:27.666Z,23.7
2024-02-09T12:47:04.667Z,38.0
2024-02-09T12:52:35.406Z,46.1
2024-02-09T12:58:07.053Z,44.9
2024-02-09T13:03:38.636Z,44.2
2024-02-09T13:09:10.244Z,45.5
2024-02-09T13:14:41.784Z,40.1
2024-02-09T13:20:13.475Z,83.7
2024-02-09T13:25:45.422Z,35.0
2024-02-09T13:31:16.857Z,29.7
2024-02-09T13:36:48.323Z,31.6
2024-02-09T13:42:19.984Z,39.6
2024-02-09T13:47:58.246Z,33.6
2024-02-09T13:53:29.697Z,40.9
2024-02-09T13:59:01.394Z,40.4
2024-02-09T14:04:32.999Z,39.9
2024-02-09T14:10:04.582Z,38.2
2024-02-09T14:15:36.116Z,40.4
2024-02-09T14:21:07.836Z,45.8
2024-02-09T14:26:39.346Z,28.0
2024-02-09T14:32:11.055Z,34.7
2024-02-09T14:37:42.773Z,23.3
2024-02-09T14:43:14.364Z,25.7
2024-02-09T14:48:50.376Z,31.4
2024-02-09T14:54:22.454Z,34.2
2024-02-09T14:59:54.176Z,26.0
2024-02-09T15:05:26.152Z,51.2
2024-02-09T15:10:56.881Z,46.1
2024-02-09T15:16:28.514Z,38.1
2024-02-09T15:22:00.402Z,25.4
2024-02-09T15:27:31.701Z,22.2
2024-02-09T15:33:03.532Z,46.7
2024-02-09T15:38:35.030Z,34.5
2024-02-09T15:44:07.963Z,47.8
2024-02-09T15:49:44.728Z,46.9
2024-02-09T15:55:16.329Z,205.0
2024-02-09T16:00:48.016Z,59.3
2024-02-09T16:06:20.054Z,41.1
2024-02-09T16:11:51.124Z,51.3
2024-02-09T16:17:22.728Z,58.2
2024-02-09T16:22:54.560Z,56.0
2024-02-09T16:28:26.094Z,67.9
2024-02-09T16:33:57.798Z,46.5
2024-02-09T16:39:29.286Z,62.7
2024-02-09T16:45:01.916Z,57.3
2024-02-09T16:50:38.966Z,59.6
2024-02-09T16:56:11.240Z,46.6
2024-02-09T17:01:42.750Z,68.2
2024-02-09T17:07:13.923Z,52.5
2024-02-09T17:12:46.271Z,57.5
2024-02-09T17:18:24.193Z,199.6
2024-02-09T17:23:55.965Z,193.4
2024-02-09T17:29:27.520Z,180.1
2024-02-09T17:34:59.109Z,173.6
2024-02-09T17:40:31.415Z,200.3
2024-02-09T17:46:02.519Z,184.8
2024-02-09T17:51:38.481Z,228.1
2024-02-09T17:57:10.086Z,190.6
2024-02-09T18:02:41.741Z,187.4
2024-02-09T18:08:13.388Z,183.2
2024-02-09T18:13:45.232Z,202.4
2024-02-09T18:19:17.013Z,199.4
2024-02-09T18:24:48.392Z,183.7
2024-02-09T18:30:20.000Z,174.3
2024-02-09T18:35:51.501Z,171.4
2024-02-09T18:41:23.146Z,175.5
2024-02-09T18:46:54.832Z,183.3
2024-02-09T18:52:30.881Z,158.9
2024-02-09T18:58:02.476Z,181.7
2024-02-09T19:03:34.500Z,151.8
2024-02-09T19:09:05.703Z,171.3
2024-02-09T19:14:37.375Z,144.9
2024-02-09T19:20:09.340Z,149.7
2024-02-09T19:25:40.885Z,141.0
2024-02-09T19:31:12.454Z,182.1
2024-02-09T19:36:44.150Z,154.1
2024-02-09T19:42:15.511Z,46.5
2024-02-09T19:47:47.376Z,126.4
2024-02-09T19:53:23.192Z,129.6
2024-02-09T19:58:55.268Z,136.6
2024-02-09T20:04:26.684Z,171.4
2024-02-09T20:09:58.123Z,129.9
2024-02-09T20:15:30.054Z,124.6
2024-02-09T20:21:01.734Z,140.1
2024-02-09T20:26:33.540Z,125.7
2024-02-09T20:32:04.849Z,90.2
2024-02-09T20:37:36.303Z,115.6
2024-02-09T20:43:08.166Z,106.1
2024-02-09T20:48:40.256Z,129.5
2024-02-09T20:54:15.673Z,133.6
2024-02-09T20:59:47.228Z,101.5
2024-02-09T21:05:19.001Z,125.9
2024-02-09T21:10:50.801Z,126.3
2024-02-09T21:16:22.110Z,120.3
2024-02-09T21:21:53.713Z,149.3
2024-02-09T21:27:25.382Z,134.0
2024-02-09T21:33:02.538Z,113.7
2024-02-09T21:38:28.727Z,118.4
2024-02-09T21:44:00.265Z,181.3
2024-02-09T21:49:32.101Z,176.8
2024-02-09T21:55:10.126Z,180.2
2024-02-09T22:00:41.753Z,146.9
2024-02-09T22:06:13.256Z,176.8
2024-02-09T22:11:44.706Z,182.2
2024-02-09T22:17:16.469Z,189.7
2024-02-09T22:22:48.212Z,198.0
2024-02-09T22:28:19.782Z,199.6
2024-02-09T22:33:51.394Z,224.1
2024-02-09T22:39:34.904Z,197.7
2024-02-09T22:44:54.652Z,214.6
2024-02-09T22:50:26.161Z,241.3
2024-02-09T22:56:02.604Z,234.1
2024-02-09T23:01:34.607Z,244.3
2024-02-09T23:07:05.409Z,239.8
2024-02-09T23:12:37.177Z,222.6
2024-02-09T23:18:08.803Z,222.5
2024-02-09T23:23:40.267Z,243.0
2024-02-09T23:29:11.922Z,221.0
2024-02-09T23:34:44.000Z,256.7
2024-02-09T23:40:15.455Z,255.9
2024-02-09T23:45:46.773Z,280.5
2024-02-09T23:51:18.489Z,290.0
2024-02-09T23:56:56.543Z,277.9
